sensor_id;sensor_type;location;lat;lon;timestamp;P1;durP1;ratioP1;P2;durP2;ratioP2
4311;SDS011;2169;49.086;9.284;2023-12-20T00:00:21;7.07;;;6.37;;
4311;SDS011;2169;49.086;9.284;2023-12-20T00:02:48;7.00;;;5.70;;
4311;SDS011;2169;49.086;9.284;2023-12-20T00:05:15;7.67;;;7.00;;
4311;SDS011;2169;49.086;9.284;2023-12-20T00:07:42;6.43;;;5.47;;
4311;SDS011;2169;49.086;9.284;2023-12-20T00:10:09;11.30;;;4.57;;
4311;SDS011;2169;49.086;9.284;2023-12-20T00:12:37;6.50;;;5.37;;
4311;SDS011;2169;49.086;9.284;2023-12-20T00:15:06;6.87;;;4.87;;
4311;SDS011;2169;49.086;9.284;2023-12-20T00:17:34;20.43;;;4.90;;
4311;SDS011;2169;49.086;9.284;2023-12-20T00:20:01;7.60;;;4.57;;
4311;SDS011;2169;49.086;9.284;2023-12-20T00:22:28;5.37;;;4.87;;
4311;SDS011;2169;49.086;9.284;2023-12-20T00:24:55;8.83;;;5.90;;
4311;SDS011;2169;49.086;9.284;2023-12-20T00:27:22;5.88;;;5.22;;
4311;SDS011;2169;49.086;9.284;2023-12-20T00:29:49;8.83;;;6.47;;
4311;SDS011;2169;49.086;9.284;2023-12-20T00:32:16;7.75;;;5.30;;
4311;SDS011;2169;49.086;9.284;2023-12-20T00:34:46;5.17;;;4.57;;
4311;SDS011;2169;49.086;9.284;2023-12-20T00:37:13;4.80;;;3.97;;
4311;SDS011;2169;49.086;9.284;2023-12-20T00:39:39;5.53;;;5.13;;
4311;SDS011;2169;49.086;9.284;2023-12-20T00:42:08;6.93;;;4.50;;
4311;SDS011;2169;49.086;9.284;2023-12-20T00:44:35;10.30;;;4.90;;
4311;SDS011;2169;49.086;9.284;2023-12-20T00:47:03;6.87;;;5.70;;
4311;SDS011;2169;49.086;9.284;2023-12-20T00:49:30;5.23;;;4.07;;
4311;SDS011;2169;49.086;9.284;2023-12-20T00:51:58;6.83;;;5.73;;
4311;SDS011;2169;49.086;9.284;2023-12-20T00:54:25;5.77;;;4.70;;
4311;SDS011;2169;49.086;9.284;2023-12-20T00:56:52;7.57;;;6.43;;
4311;SDS011;2169;49.086;9.284;2023-12-20T00:59:19;6.10;;;5.60;;
4311;SDS011;2169;49.086;9.284;2023-12-20T01:01:45;6.73;;;4.73;;
4311;SDS011;2169;49.086;9.284;2023-12-20T01:04:12;9.20;;;4.43;;
4311;SDS011;2169;49.086;9.284;2023-12-20T01:06:39;8.77;;;6.37;;
4311;SDS011;2169;49.086;9.284;2023-12-20T01:09:07;7.40;;;5.77;;
4311;SDS011;2169;49.086;9.284;2023-12-20T01:11:34;5.73;;;4.70;;
4311;SDS011;2169;49.086;9.284;2023-12-20T01:14:01;7.43;;;5.13;;
4311;SDS011;2169;49.086;9.284;2023-12-20T01:16:27;3.63;;;3.33;;
4311;SDS011;2169;49.086;9.284;2023-12-20T01:18:54;4.43;;;4.13;;
4311;SDS011;2169;49.086;9.284;2023-12-20T01:21:21;5.83;;;5.33;;
4311;SDS011;2169;49.086;9.284;2023-12-20T01:23:49;5.33;;;4.70;;
4311;SDS011;2169;49.086;9.284;2023-12-20T01:26:17;4.93;;;3.13;;
4311;SDS011;2169;49.086;9.284;2023-12-20T01:28:44;3.67;;;3.37;;
4311;SDS011;2169;49.086;9.284;2023-12-20T01:31:11;5.90;;;3.47;;
4311;SDS011;2169;49.086;9.284;2023-12-20T01:33:37;3.00;;;2.00;;
4311;SDS011;2169;49.086;9.284;2023-12-20T01:36:04;2.83;;;2.63;;
4311;SDS011;2169;49.086;9.284;2023-12-20T01:38:31;3.30;;;3.03;;
4311;SDS011;2169;49.086;9.284;2023-12-20T01:40:58;1.50;;;1.43;;
4311;SDS011;2169;49.086;9.284;2023-12-20T01:43:27;1.67;;;1.57;;
4311;SDS011;2169;49.086;9.284;2023-12-20T01:45:54;10.13;;;1.60;;
4311;SDS011;2169;49.086;9.284;2023-12-20T01:48:23;3.00;;;2.37;;
4311;SDS011;2169;49.086;9.284;2023-12-20T01:50:50;1.57;;;1.47;;
4311;SDS011;2169;49.086;9.284;2023-12-20T01:53:18;3.00;;;1.97;;
4311;SDS011;2169;49.086;9.284;2023-12-20T01:55:47;6.93;;;1.70;;
4311;SDS011;2169;49.086;9.284;2023-12-20T01:58:17;1.27;;;1.20;;
4311;SDS011;2169;49.086;9.284;2023-12-20T02:00:47;4.23;;;1.40;;
4311;SDS011;2169;49.086;9.284;2023-12-20T02:03:14;2.43;;;2.23;;
4311;SDS011;2169;49.086;9.284;2023-12-20T02:05:41;1.50;;;1.40;;
4311;SDS011;2169;49.086;9.284;2023-12-20T02:08:08;1.53;;;1.53;;
4311;SDS011;2169;49.086;9.284;2023-12-20T02:10:35;0.90;;;0.90;;
4311;SDS011;2169;49.086;9.284;2023-12-20T02:13:02;2.60;;;1.37;;
4311;SDS011;2169;49.086;9.284;2023-12-20T02:15:30;3.33;;;1.53;;
4311;SDS011;2169;49.086;9.284;2023-12-20T02:17:58;2.17;;;1.97;;
4311;SDS011;2169;49.086;9.284;2023-12-20T02:20:25;1.30;;;1.20;;
4311;SDS011;2169;49.086;9.284;2023-12-20T02:22:54;1.27;;;1.27;;
4311;SDS011;2169;49.086;9.284;2023-12-20T02:25:21;0.80;;;0.80;;
4311;SDS011;2169;49.086;9.284;2023-12-20T02:27:47;1.30;;;1.30;;
4311;SDS011;2169;49.086;9.284;2023-12-20T02:30:15;1.00;;;1.00;;
4311;SDS011;2169;49.086;9.284;2023-12-20T02:32:42;0.50;;;0.50;;
4311;SDS011;2169;49.086;9.284;2023-12-20T02:35:09;0.90;;;0.60;;
4311;SDS011;2169;49.086;9.284;2023-12-20T02:37:36;0.80;;;0.80;;
4311;SDS011;2169;49.086;9.284;2023-12-20T02:40:05;0.83;;;0.83;;
4311;SDS011;2169;49.086;9.284;2023-12-20T02:42:33;0.80;;;0.80;;
4311;SDS011;2169;49.086;9.284;2023-12-20T02:45:00;1.17;;;1.07;;
4311;SDS011;2169;49.086;9.284;2023-12-20T02:47:27;0.93;;;0.77;;
4311;SDS011;2169;49.086;9.284;2023-12-20T02:49:54;1.70;;;0.70;;
4311;SDS011;2169;49.086;9.284;2023-12-20T02:52:21;0.90;;;0.90;;
4311;SDS011;2169;49.086;9.284;2023-12-20T02:54:49;0.63;;;0.60;;
4311;SDS011;2169;49.086;9.284;2023-12-20T02:57:17;1.13;;;0.67;;
4311;SDS011;2169;49.086;9.284;2023-12-20T02:59:44;0.60;;;0.60;;
4311;SDS011;2169;49.086;9.284;2023-12-20T03:02:11;0.93;;;0.93;;
4311;SDS011;2169;49.086;9.284;2023-12-20T03:04:38;1.23;;;0.83;;
4311;SDS011;2169;49.086;9.284;2023-12-20T03:07:06;0.60;;;0.60;;
4311;SDS011;2169;49.086;9.284;2023-12-20T03:09:33;0.70;;;0.70;;
4311;SDS011;2169;49.086;9.284;2023-12-20T03:12:02;0.80;;;0.80;;
4311;SDS011;2169;49.086;9.284;2023-12-20T03:14:31;0.73;;;0.73;;
4311;SDS011;2169;49.086;9.284;2023-12-20T03:16:58;0.70;;;0.70;;
4311;SDS011;2169;49.086;9.284;2023-12-20T03:19:24;0.60;;;0.60;;
4311;SDS011;2169;49.086;9.284;2023-12-20T03:21:51;0.80;;;0.80;;
4311;SDS011;2169;49.086;9.284;2023-12-20T03:24:18;0.60;;;0.60;;
4311;SDS011;2169;49.086;9.284;2023-12-20T03:26:45;1.03;;;1.03;;
4311;SDS011;2169;49.086;9.284;2023-12-20T03:29:12;0.57;;;0.57;;
4311;SDS011;2169;49.086;9.284;2023-12-20T03:31:41;1.30;;;1.03;;
4311;SDS011;2169;49.086;9.284;2023-12-20T03:34:08;0.80;;;0.80;;
4311;SDS011;2169;49.086;9.284;2023-12-20T03:36:35;0.67;;;0.50;;
4311;SDS011;2169;49.086;9.284;2023-12-20T03:39:02;0.80;;;0.67;;
4311;SDS011;2169;49.086;9.284;2023-12-20T03:41:30;1.23;;;0.80;;
4311;SDS011;2169;49.086;9.284;2023-12-20T03:43:57;0.50;;;0.50;;
4311;SDS011;2169;49.086;9.284;2023-12-20T03:46:25;0.90;;;0.90;;
4311;SDS011;2169;49.086;9.284;2023-12-20T03:48:54;0.87;;;0.87;;
4311;SDS011;2169;49.086;9.284;2023-12-20T03:51:22;0.70;;;0.70;;
4311;SDS011;2169;49.086;9.284;2023-12-20T03:53:49;1.37;;;1.27;;
4311;SDS011;2169;49.086;9.284;2023-12-20T03:56:17;0.77;;;0.77;;
4311;SDS011;2169;49.086;9.284;2023-12-20T03:58:45;0.53;;;0.53;;
4311;SDS011;2169;49.086;9.284;2023-12-20T04:01:12;0.80;;;0.80;;
4311;SDS011;2169;49.086;9.284;2023-12-20T04:03:39;1.03;;;0.80;;
4311;SDS011;2169;49.086;9.284;2023-12-20T04:06:07;4.93;;;0.83;;
4311;SDS011;2169;49.086;9.284;2023-12-20T04:08:34;0.70;;;0.70;;
4311;SDS011;2169;49.086;9.284;2023-12-20T04:11:01;0.90;;;0.90;;
4311;SDS011;2169;49.086;9.284;2023-12-20T04:13:28;0.60;;;0.60;;
4311;SDS011;2169;49.086;9.284;2023-12-20T04:15:55;0.70;;;0.70;;
4311;SDS011;2169;49.086;9.284;2023-12-20T04:18:22;1.00;;;1.00;;
4311;SDS011;2169;49.086;9.284;2023-12-20T04:20:49;0.90;;;0.73;;
4311;SDS011;2169;49.086;9.284;2023-12-20T04:23:18;1.13;;;1.00;;
4311;SDS011;2169;49.086;9.284;2023-12-20T04:25:45;0.80;;;0.80;;
4311;SDS011;2169;49.086;9.284;2023-12-20T04:28:12;1.00;;;0.90;;
4311;SDS011;2169;49.086;9.284;2023-12-20T04:30:41;0.70;;;0.70;;
4311;SDS011;2169;49.086;9.284;2023-12-20T04:33:08;1.47;;;1.23;;
4311;SDS011;2169;49.086;9.284;2023-12-20T04:35:35;0.63;;;0.63;;
4311;SDS011;2169;49.086;9.284;2023-12-20T04:38:02;0.80;;;0.80;;
4311;SDS011;2169;49.086;9.284;2023-12-20T04:40:31;0.63;;;0.63;;
4311;SDS011;2169;49.086;9.284;2023-12-20T04:42:58;0.90;;;0.90;;
4311;SDS011;2169;49.086;9.284;2023-12-20T04:45:25;0.70;;;0.70;;
4311;SDS011;2169;49.086;9.284;2023-12-20T04:47:52;1.27;;;0.97;;
4311;SDS011;2169;49.086;9.284;2023-12-20T04:50:19;0.70;;;0.70;;
4311;SDS011;2169;49.086;9.284;2023-12-20T04:52:46;0.70;;;0.70;;
4311;SDS011;2169;49.086;9.284;2023-12-20T04:55:13;0.93;;;0.93;;
4311;SDS011;2169;49.086;9.284;2023-12-20T04:57:42;1.20;;;1.20;;
4311;SDS011;2169;49.086;9.284;2023-12-20T05:00:09;0.80;;;0.80;;
4311;SDS011;2169;49.086;9.284;2023-12-20T05:02:37;0.70;;;0.70;;
4311;SDS011;2169;49.086;9.284;2023-12-20T05:05:04;2.30;;;1.10;;
4311;SDS011;2169;49.086;9.284;2023-12-20T05:07:31;0.87;;;0.80;;
4311;SDS011;2169;49.086;9.284;2023-12-20T05:09:58;0.90;;;0.90;;
4311;SDS011;2169;49.086;9.284;2023-12-20T05:12:26;1.40;;;1.33;;
4311;SDS011;2169;49.086;9.284;2023-12-20T05:14:55;2.17;;;2.03;;
4311;SDS011;2169;49.086;9.284;2023-12-20T05:17:21;2.23;;;2.00;;
4311;SDS011;2169;49.086;9.284;2023-12-20T05:19:48;2.40;;;1.73;;
4311;SDS011;2169;49.086;9.284;2023-12-20T05:22:15;1.50;;;1.40;;
4311;SDS011;2169;49.086;9.284;2023-12-20T05:24:43;2.83;;;1.97;;
4311;SDS011;2169;49.086;9.284;2023-12-20T05:27:10;2.97;;;2.87;;
4311;SDS011;2169;49.086;9.284;2023-12-20T05:29:37;3.23;;;3.03;;
4311;SDS011;2169;49.086;9.284;2023-12-20T05:32:06;2.57;;;2.37;;
4311;SDS011;2169;49.086;9.284;2023-12-20T05:34:33;5.97;;;2.07;;
4311;SDS011;2169;49.086;9.284;2023-12-20T05:37:00;1.77;;;1.67;;
4311;SDS011;2169;49.086;9.284;2023-12-20T05:39:35;5.13;;;3.00;;
4311;SDS011;2169;49.086;9.284;2023-12-20T05:42:02;3.37;;;2.30;;
4311;SDS011;2169;49.086;9.284;2023-12-20T05:44:30;1.00;;;1.00;;
4311;SDS011;2169;49.086;9.284;2023-12-20T05:46:58;1.87;;;1.80;;
4311;SDS011;2169;49.086;9.284;2023-12-20T05:49:26;2.72;;;1.23;;
4311;SDS011;2169;49.086;9.284;2023-12-20T05:51:53;3.13;;;2.70;;
4311;SDS011;2169;49.086;9.284;2023-12-20T05:54:20;1.53;;;1.43;;
4311;SDS011;2169;49.086;9.284;2023-12-20T05:56:48;2.10;;;1.60;;
4311;SDS011;2169;49.086;9.284;2023-12-20T05:59:15;1.80;;;1.73;;
4311;SDS011;2169;49.086;9.284;2023-12-20T06:01:42;2.53;;;2.33;;
4311;SDS011;2169;49.086;9.284;2023-12-20T06:04:10;2.07;;;1.87;;
4311;SDS011;2169;49.086;9.284;2023-12-20T06:06:41;2.53;;;2.33;;
4311;SDS011;2169;49.086;9.284;2023-12-20T06:09:12;1.47;;;1.40;;
4311;SDS011;2169;49.086;9.284;2023-12-20T06:11:40;22.23;;;2.10;;
4311;SDS011;2169;49.086;9.284;2023-12-20T06:14:07;2.30;;;2.20;;
4311;SDS011;2169;49.086;9.284;2023-12-20T06:16:34;1.43;;;1.13;;
4311;SDS011;2169;49.086;9.284;2023-12-20T06:19:01;1.83;;;1.37;;
4311;SDS011;2169;49.086;9.284;2023-12-20T06:21:28;2.10;;;1.63;;
4311;SDS011;2169;49.086;9.284;2023-12-20T06:23:56;1.10;;;1.00;;
4311;SDS011;2169;49.086;9.284;2023-12-20T06:26:25;3.30;;;3.13;;
4311;SDS011;2169;49.086;9.284;2023-12-20T06:28:52;1.00;;;1.00;;
4311;SDS011;2169;49.086;9.284;2023-12-20T06:31:19;2.53;;;1.97;;
4311;SDS011;2169;49.086;9.284;2023-12-20T06:33:45;2.23;;;2.10;;
4311;SDS011;2169;49.086;9.284;2023-12-20T06:36:14;1.73;;;1.63;;
4311;SDS011;2169;49.086;9.284;2023-12-20T06:38:41;6.97;;;1.80;;
4311;SDS011;2169;49.086;9.284;2023-12-20T06:41:10;2.67;;;1.57;;
4311;SDS011;2169;49.086;9.284;2023-12-20T06:43:39;2.40;;;2.20;;
4311;SDS011;2169;49.086;9.284;2023-12-20T06:46:07;2.07;;;1.97;;
4311;SDS011;2169;49.086;9.284;2023-12-20T06:48:34;2.23;;;1.70;;
4311;SDS011;2169;49.086;9.284;2023-12-20T06:51:00;2.53;;;2.43;;
4311;SDS011;2169;49.086;9.284;2023-12-20T06:53:28;4.57;;;3.10;;
4311;SDS011;2169;49.086;9.284;2023-12-20T06:55:55;4.50;;;4.20;;
4311;SDS011;2169;49.086;9.284;2023-12-20T06:58:26;4.30;;;2.73;;
4311;SDS011;2169;49.086;9.284;2023-12-20T07:00:52;7.70;;;2.40;;
4311;SDS011;2169;49.086;9.284;2023-12-20T07:03:20;4.10;;;3.07;;
4311;SDS011;2169;49.086;9.284;2023-12-20T07:05:47;9.10;;;4.40;;
4311;SDS011;2169;49.086;9.284;2023-12-20T07:08:14;3.63;;;3.37;;
4311;SDS011;2169;49.086;9.284;2023-12-20T07:10:41;15.60;;;5.20;;
4311;SDS011;2169;49.086;9.284;2023-12-20T07:13:08;11.30;;;5.60;;
4311;SDS011;2169;49.086;9.284;2023-12-20T07:15:36;11.87;;;6.13;;
4311;SDS011;2169;49.086;9.284;2023-12-20T07:18:04;11.27;;;4.50;;
4311;SDS011;2169;49.086;9.284;2023-12-20T07:20:31;5.53;;;5.13;;
4311;SDS011;2169;49.086;9.284;2023-12-20T07:23:00;4.50;;;4.10;;
4311;SDS011;2169;49.086;9.284;2023-12-20T07:25:28;4.77;;;4.33;;
4311;SDS011;2169;49.086;9.284;2023-12-20T07:27:57;5.20;;;4.80;;
4311;SDS011;2169;49.086;9.284;2023-12-20T07:30:24;5.07;;;4.67;;
4311;SDS011;2169;49.086;9.284;2023-12-20T07:32:52;3.93;;;3.60;;
4311;SDS011;2169;49.086;9.284;2023-12-20T07:35:19;3.10;;;2.90;;
4311;SDS011;2169;49.086;9.284;2023-12-20T07:37:46;2.97;;;2.77;;
4311;SDS011;2169;49.086;9.284;2023-12-20T07:40:13;4.20;;;3.80;;
4311;SDS011;2169;49.086;9.284;2023-12-20T07:42:42;2.60;;;2.40;;
4311;SDS011;2169;49.086;9.284;2023-12-20T07:45:09;2.77;;;2.63;;
4311;SDS011;2169;49.086;9.284;2023-12-20T07:47:37;2.57;;;2.27;;
4311;SDS011;2169;49.086;9.284;2023-12-20T07:50:06;3.17;;;2.90;;
4311;SDS011;2169;49.086;9.284;2023-12-20T07:52:33;3.50;;;3.20;;
4311;SDS011;2169;49.086;9.284;2023-12-20T07:55:00;4.23;;;2.30;;
4311;SDS011;2169;49.086;9.284;2023-12-20T07:57:28;2.47;;;2.37;;
4311;SDS011;2169;49.086;9.284;2023-12-20T07:59:56;8.07;;;3.10;;
4311;SDS011;2169;49.086;9.284;2023-12-20T08:02:23;6.27;;;3.70;;
4311;SDS011;2169;49.086;9.284;2023-12-20T08:04:52;3.90;;;3.60;;
4311;SDS011;2169;49.086;9.284;2023-12-20T08:07:20;3.23;;;2.70;;
4311;SDS011;2169;49.086;9.284;2023-12-20T08:09:47;2.70;;;2.50;;
4311;SDS011;2169;49.086;9.284;2023-12-20T08:12:14;2.67;;;2.47;;
4311;SDS011;2169;49.086;9.284;2023-12-20T08:14:42;1.83;;;1.73;;
4311;SDS011;2169;49.086;9.284;2023-12-20T08:17:08;3.00;;;2.80;;
4311;SDS011;2169;49.086;9.284;2023-12-20T08:19:37;2.70;;;2.50;;
4311;SDS011;2169;49.086;9.284;2023-12-20T08:22:04;2.33;;;2.23;;
4311;SDS011;2169;49.086;9.284;2023-12-20T08:24:33;2.27;;;2.10;;
4311;SDS011;2169;49.086;9.284;2023-12-20T08:27:01;2.53;;;2.43;;
4311;SDS011;2169;49.086;9.284;2023-12-20T08:29:27;9.63;;;3.83;;
4311;SDS011;2169;49.086;9.284;2023-12-20T08:31:55;2.40;;;2.30;;
4311;SDS011;2169;49.086;9.284;2023-12-20T08:34:22;1.90;;;1.80;;
4311;SDS011;2169;49.086;9.284;2023-12-20T08:36:50;3.37;;;3.03;;
4311;SDS011;2169;49.086;9.284;2023-12-20T08:39:17;1.30;;;1.30;;
4311;SDS011;2169;49.086;9.284;2023-12-20T08:41:45;2.63;;;2.20;;
4311;SDS011;2169;49.086;9.284;2023-12-20T08:44:13;3.70;;;1.80;;
4311;SDS011;2169;49.086;9.284;2023-12-20T08:46:39;4.23;;;2.90;;
4311;SDS011;2169;49.086;9.284;2023-12-20T08:49:06;2.27;;;2.07;;
4311;SDS011;2169;49.086;9.284;2023-12-20T08:51:35;2.00;;;1.90;;
4311;SDS011;2169;49.086;9.284;2023-12-20T08:54:05;2.07;;;1.93;;
4311;SDS011;2169;49.086;9.284;2023-12-20T08:56:33;2.80;;;1.77;;
4311;SDS011;2169;49.086;9.284;2023-12-20T08:59:02;2.53;;;2.33;;
4311;SDS011;2169;49.086;9.284;2023-12-20T09:01:29;1.50;;;1.50;;
4311;SDS011;2169;49.086;9.284;2023-12-20T09:03:56;2.70;;;2.50;;
4311;SDS011;2169;49.086;9.284;2023-12-20T09:06:23;1.47;;;1.43;;
4311;SDS011;2169;49.086;9.284;2023-12-20T09:08:50;3.90;;;3.70;;
4311;SDS011;2169;49.086;9.284;2023-12-20T09:11:17;5.00;;;2.70;;
4311;SDS011;2169;49.086;9.284;2023-12-20T09:13:44;2.77;;;2.50;;
4311;SDS011;2169;49.086;9.284;2023-12-20T09:16:13;1.90;;;1.53;;
4311;SDS011;2169;49.086;9.284;2023-12-20T09:18:40;1.57;;;1.57;;
4311;SDS011;2169;49.086;9.284;2023-12-20T09:21:08;1.80;;;1.70;;
4311;SDS011;2169;49.086;9.284;2023-12-20T09:23:35;4.67;;;1.77;;
4311;SDS011;2169;49.086;9.284;2023-12-20T09:26:03;2.00;;;1.90;;
4311;SDS011;2169;49.086;9.284;2023-12-20T09:28:29;1.70;;;1.60;;
4311;SDS011;2169;49.086;9.284;2023-12-20T09:31:01;4.53;;;2.40;;
4311;SDS011;2169;49.086;9.284;2023-12-20T09:33:31;3.80;;;2.93;;
4311;SDS011;2169;49.086;9.284;2023-12-20T09:35:58;1.83;;;1.73;;
4311;SDS011;2169;49.086;9.284;2023-12-20T09:38:25;7.90;;;1.77;;
4311;SDS011;2169;49.086;9.284;2023-12-20T09:40:52;1.23;;;1.13;;
4311;SDS011;2169;49.086;9.284;2023-12-20T09:43:23;2.30;;;1.60;;
4311;SDS011;2169;49.086;9.284;2023-12-20T09:45:52;3.60;;;1.23;;
4311;SDS011;2169;49.086;9.284;2023-12-20T09:48:20;1.87;;;1.10;;
4311;SDS011;2169;49.086;9.284;2023-12-20T09:50:48;1.57;;;1.43;;
4311;SDS011;2169;49.086;9.284;2023-12-20T09:53:15;1.23;;;1.13;;
4311;SDS011;2169;49.086;9.284;2023-12-20T09:55:44;4.00;;;1.40;;
4311;SDS011;2169;49.086;9.284;2023-12-20T09:58:11;2.57;;;1.70;;
4311;SDS011;2169;49.086;9.284;2023-12-20T10:00:37;2.57;;;1.17;;
4311;SDS011;2169;49.086;9.284;2023-12-20T10:03:05;1.00;;;1.00;;
4311;SDS011;2169;49.086;9.284;2023-12-20T10:05:33;0.70;;;0.70;;
4311;SDS011;2169;49.086;9.284;2023-12-20T10:08:02;6.30;;;1.53;;
4311;SDS011;2169;49.086;9.284;2023-12-20T10:10:29;1.10;;;1.10;;
4311;SDS011;2169;49.086;9.284;2023-12-20T10:13:03;1.67;;;1.57;;
4311;SDS011;2169;49.086;9.284;2023-12-20T10:15:31;1.10;;;1.00;;
4311;SDS011;2169;49.086;9.284;2023-12-20T10:17:59;1.20;;;1.20;;
4311;SDS011;2169;49.086;9.284;2023-12-20T10:20:26;0.87;;;0.87;;
4311;SDS011;2169;49.086;9.284;2023-12-20T10:22:54;4.83;;;1.23;;
4311;SDS011;2169;49.086;9.284;2023-12-20T10:25:23;3.00;;;0.93;;
4311;SDS011;2169;49.086;9.284;2023-12-20T10:28:08;1.03;;;1.03;;
4311;SDS011;2169;49.086;9.284;2023-12-20T10:30:36;4.10;;;0.90;;
4311;SDS011;2169;49.086;9.284;2023-12-20T10:33:03;2.70;;;1.20;;
4311;SDS011;2169;49.086;9.284;2023-12-20T10:35:31;4.33;;;0.87;;
4311;SDS011;2169;49.086;9.284;2023-12-20T10:37:58;1.67;;;0.90;;
4311;SDS011;2169;49.086;9.284;2023-12-20T10:40:30;5.00;;;1.30;;
4311;SDS011;2169;49.086;9.284;2023-12-20T10:42:59;2.67;;;1.03;;
4311;SDS011;2169;49.086;9.284;2023-12-20T10:45:28;1.43;;;1.33;;
4311;SDS011;2169;49.086;9.284;2023-12-20T10:47:55;3.90;;;1.00;;
4311;SDS011;2169;49.086;9.284;2023-12-20T10:50:24;5.13;;;0.80;;
4311;SDS011;2169;49.086;9.284;2023-12-20T10:52:52;2.10;;;1.00;;
4311;SDS011;2169;49.086;9.284;2023-12-20T10:55:21;2.40;;;1.27;;
4311;SDS011;2169;49.086;9.284;2023-12-20T10:57:49;0.70;;;0.70;;
4311;SDS011;2169;49.086;9.284;2023-12-20T11:00:17;1.07;;;1.07;;
4311;SDS011;2169;49.086;9.284;2023-12-20T11:02:45;1.20;;;1.10;;
4311;SDS011;2169;49.086;9.284;2023-12-20T11:05:19;3.57;;;1.83;;
4311;SDS011;2169;49.086;9.284;2023-12-20T11:07:55;1.03;;;0.90;;
4311;SDS011;2169;49.086;9.284;2023-12-20T11:10:29;3.63;;;1.00;;
4311;SDS011;2169;49.086;9.284;2023-12-20T11:13:03;2.70;;;1.03;;
4311;SDS011;2169;49.086;9.284;2023-12-20T11:15:35;14.23;;;1.17;;
4311;SDS011;2169;49.086;9.284;2023-12-20T11:18:03;3.23;;;1.10;;
4311;SDS011;2169;49.086;9.284;2023-12-20T11:20:37;4.77;;;1.13;;
4311;SDS011;2169;49.086;9.284;2023-12-20T11:23:05;0.97;;;0.97;;
4311;SDS011;2169;49.086;9.284;2023-12-20T11:25:46;1.27;;;0.80;;
4311;SDS011;2169;49.086;9.284;2023-12-20T11:28:15;1.40;;;1.30;;
4311;SDS011;2169;49.086;9.284;2023-12-20T11:30:47;3.13;;;1.97;;
4311;SDS011;2169;49.086;9.284;2023-12-20T11:33:16;5.43;;;1.47;;
4311;SDS011;2169;49.086;9.284;2023-12-20T11:35:47;1.00;;;1.00;;
4311;SDS011;2169;49.086;9.284;2023-12-20T11:38:14;4.03;;;1.27;;
4311;SDS011;2169;49.086;9.284;2023-12-20T11:40:42;0.80;;;0.80;;
4311;SDS011;2169;49.086;9.284;2023-12-20T11:43:09;11.20;;;1.63;;
4311;SDS011;2169;49.086;9.284;2023-12-20T11:45:38;8.17;;;1.00;;
4311;SDS011;2169;49.086;9.284;2023-12-20T11:48:17;2.20;;;1.33;;
4311;SDS011;2169;49.086;9.284;2023-12-20T11:50:44;1.77;;;1.20;;
4311;SDS011;2169;49.086;9.284;2023-12-20T11:53:11;8.30;;;1.20;;
4311;SDS011;2169;49.086;9.284;2023-12-20T11:55:38;5.90;;;1.13;;
4311;SDS011;2169;49.086;9.284;2023-12-20T11:58:05;5.40;;;1.23;;
4311;SDS011;2169;49.086;9.284;2023-12-20T12:00:34;3.73;;;1.40;;
4311;SDS011;2169;49.086;9.284;2023-12-20T12:03:02;1.53;;;0.97;;
4311;SDS011;2169;49.086;9.284;2023-12-20T12:05:30;1.20;;;1.13;;
4311;SDS011;2169;49.086;9.284;2023-12-20T12:07:58;12.23;;;1.30;;
4311;SDS011;2169;49.086;9.284;2023-12-20T12:10:25;0.83;;;0.83;;
4311;SDS011;2169;49.086;9.284;2023-12-20T12:12:52;3.40;;;1.43;;
4311;SDS011;2169;49.086;9.284;2023-12-20T12:15:19;4.17;;;1.30;;
4311;SDS011;2169;49.086;9.284;2023-12-20T12:17:52;3.77;;;1.40;;
4311;SDS011;2169;49.086;9.284;2023-12-20T12:20:21;1.37;;;0.80;;
4311;SDS011;2169;49.086;9.284;2023-12-20T12:22:57;2.97;;;1.13;;
4311;SDS011;2169;49.086;9.284;2023-12-20T12:25:24;2.30;;;0.80;;
4311;SDS011;2169;49.086;9.284;2023-12-20T12:27:51;7.33;;;2.20;;
4311;SDS011;2169;49.086;9.284;2023-12-20T12:30:18;1.43;;;1.33;;
4311;SDS011;2169;49.086;9.284;2023-12-20T12:32:45;1.87;;;1.57;;
4311;SDS011;2169;49.086;9.284;2023-12-20T12:35:13;0.80;;;0.80;;
4311;SDS011;2169;49.086;9.284;2023-12-20T12:37:42;7.10;;;1.23;;
4311;SDS011;2169;49.086;9.284;2023-12-20T12:40:10;5.13;;;1.50;;
4311;SDS011;2169;49.086;9.284;2023-12-20T12:42:38;6.03;;;1.00;;
4311;SDS011;2169;49.086;9.284;2023-12-20T12:45:06;8.43;;;1.53;;
4311;SDS011;2169;49.086;9.284;2023-12-20T12:47:35;5.50;;;2.13;;
4311;SDS011;2169;49.086;9.284;2023-12-20T12:50:02;6.23;;;1.53;;
4311;SDS011;2169;49.086;9.284;2023-12-20T12:52:29;1.23;;;0.67;;
4311;SDS011;2169;49.086;9.284;2023-12-20T12:54:58;1.00;;;0.87;;
4311;SDS011;2169;49.086;9.284;2023-12-20T12:57:25;1.67;;;1.40;;
4311;SDS011;2169;49.086;9.284;2023-12-20T12:59:52;6.63;;;1.37;;
4311;SDS011;2169;49.086;9.284;2023-12-20T13:02:21;2.53;;;1.27;;
4311;SDS011;2169;49.086;9.284;2023-12-20T13:04:47;3.47;;;1.40;;
4311;SDS011;2169;49.086;9.284;2023-12-20T13:07:14;1.30;;;1.20;;
4311;SDS011;2169;49.086;9.284;2023-12-20T13:09:42;3.17;;;1.43;;
4311;SDS011;2169;49.086;9.284;2023-12-20T13:12:10;1.13;;;1.00;;
4311;SDS011;2169;49.086;9.284;2023-12-20T13:14:37;2.57;;;1.37;;
4311;SDS011;2169;49.086;9.284;2023-12-20T13:17:04;1.37;;;1.10;;
4311;SDS011;2169;49.086;9.284;2023-12-20T13:19:31;1.50;;;1.20;;
4311;SDS011;2169;49.086;9.284;2023-12-20T13:21:58;2.20;;;1.50;;
4311;SDS011;2169;49.086;9.284;2023-12-20T13:24:25;1.57;;;1.40;;
4311;SDS011;2169;49.086;9.284;2023-12-20T13:26:52;1.77;;;1.10;;
4311;SDS011;2169;49.086;9.284;2023-12-20T13:29:20;8.10;;;1.43;;
4311;SDS011;2169;49.086;9.284;2023-12-20T13:31:49;17.57;;;1.00;;
4311;SDS011;2169;49.086;9.284;2023-12-20T13:34:16;1.00;;;1.00;;
4311;SDS011;2169;49.086;9.284;2023-12-20T13:36:43;3.37;;;1.57;;
4311;SDS011;2169;49.086;9.284;2023-12-20T13:39:12;2.87;;;1.10;;
4311;SDS011;2169;49.086;9.284;2023-12-20T13:41:39;1.47;;;1.37;;
4311;SDS011;2169;49.086;9.284;2023-12-20T13:44:07;4.03;;;1.37;;
4311;SDS011;2169;49.086;9.284;2023-12-20T13:46:35;6.50;;;2.00;;
4311;SDS011;2169;49.086;9.284;2023-12-20T13:49:02;1.20;;;1.10;;
4311;SDS011;2169;49.086;9.284;2023-12-20T13:51:30;4.00;;;1.23;;
4311;SDS011;2169;49.086;9.284;2023-12-20T13:53:56;0.87;;;0.80;;
4311;SDS011;2169;49.086;9.284;2023-12-20T13:56:24;2.30;;;1.57;;
4311;SDS011;2169;49.086;9.284;2023-12-20T13:58:51;4.50;;;1.20;;
4311;SDS011;2169;49.086;9.284;2023-12-20T14:01:20;6.47;;;2.33;;
4311;SDS011;2169;49.086;9.284;2023-12-20T14:03:48;1.60;;;1.20;;
4311;SDS011;2169;49.086;9.284;2023-12-20T14:06:15;1.03;;;1.03;;
4311;SDS011;2169;49.086;9.284;2023-12-20T14:08:42;3.50;;;1.33;;
4311;SDS011;2169;49.086;9.284;2023-12-20T14:11:10;1.47;;;1.10;;
4311;SDS011;2169;49.086;9.284;2023-12-20T14:13:37;3.03;;;1.10;;
4311;SDS011;2169;49.086;9.284;2023-12-20T14:16:04;12.50;;;2.03;;
4311;SDS011;2169;49.086;9.284;2023-12-20T14:18:31;1.60;;;1.40;;
4311;SDS011;2169;49.086;9.284;2023-12-20T14:21:00;2.10;;;1.00;;
4311;SDS011;2169;49.086;9.284;2023-12-20T14:23:27;1.00;;;1.00;;
4311;SDS011;2169;49.086;9.284;2023-12-20T14:25:54;1.93;;;0.90;;
4311;SDS011;2169;49.086;9.284;2023-12-20T14:28:23;1.30;;;1.20;;
4311;SDS011;2169;49.086;9.284;2023-12-20T14:30:50;0.83;;;0.83;;
4311;SDS011;2169;49.086;9.284;2023-12-20T14:33:17;3.23;;;0.83;;
4311;SDS011;2169;49.086;9.284;2023-12-20T14:35:45;1.13;;;1.13;;
4311;SDS011;2169;49.086;9.284;2023-12-20T14:38:14;6.20;;;1.20;;
4311;SDS011;2169;49.086;9.284;2023-12-20T14:40:41;4.23;;;1.20;;
4311;SDS011;2169;49.086;9.284;2023-12-20T14:43:08;1.03;;;1.03;;
4311;SDS011;2169;49.086;9.284;2023-12-20T14:45:36;1.70;;;1.57;;
4311;SDS011;2169;49.086;9.284;2023-12-20T14:48:04;1.53;;;1.53;;
4311;SDS011;2169;49.086;9.284;2023-12-20T14:50:31;1.73;;;1.30;;
4311;SDS011;2169;49.086;9.284;2023-12-20T14:52:59;2.10;;;1.40;;
4311;SDS011;2169;49.086;9.284;2023-12-20T14:55:27;6.20;;;1.47;;
4311;SDS011;2169;49.086;9.284;2023-12-20T14:57:54;4.57;;;1.10;;
4311;SDS011;2169;49.086;9.284;2023-12-20T15:00:21;4.50;;;1.70;;
4311;SDS011;2169;49.086;9.284;2023-12-20T15:02:48;1.10;;;1.10;;
4311;SDS011;2169;49.086;9.284;2023-12-20T15:05:15;0.93;;;0.90;;
4311;SDS011;2169;49.086;9.284;2023-12-20T15:07:42;2.80;;;1.63;;
4311;SDS011;2169;49.086;9.284;2023-12-20T15:10:09;2.40;;;2.03;;
4311;SDS011;2169;49.086;9.284;2023-12-20T15:12:38;3.77;;;1.97;;
4311;SDS011;2169;49.086;9.284;2023-12-20T15:15:06;1.27;;;1.17;;
4311;SDS011;2169;49.086;9.284;2023-12-20T15:17:34;6.33;;;1.27;;